< < Back
Terminal Aerodrome Forecast


Current Version              Previous Versions:   1  2  3  4  5  6  7  8  9  

Terminal Aerodrome Forecast

472
FTUS42 KTAE 211100
TAFVLD
TAF
KVLD 211121Z 2112/2212 00000KT 6SM BR SCT005
     FM211300 32004KT P6SM SCT050=

Latest METAR

243
SAUS70 KWBC 212000 RRF
MTRVLD
METAR KVLD 211953Z 02006KT 10SM SCT050 36/21 A3005 RMK AO2 SLP182
T03610206


USA.gov is the U.S. government's official web portal to all federal, state and local government web resources and services.